Aviation Digital Data Service (ADDS)

Output produced by METARs form (1553 UTC 25 July 2016)
found at http://www.aviationweather.gov/adds/metars/
 
KJST 251454Z AUTO 25012KT 10SM FEW022 FEW029 28/22 A3006 RMK AO2 SLP161 T02780217 51001
KJST 251354Z AUTO 24008KT 7SM FEW026 26/22 A3006 RMK AO2 SLP160 T02610217
KJST 251254Z AUTO 23006KT 7SM FEW038 24/21 A3006 RMK AO2 SLP162 T02440206
KJST 251154Z AUTO 21006KT 6SM HZ FEW031 23/20 A3006 RMK AO2 SLP162 70013 T02330200 10233 20206 58003
KJST 251054Z AUTO 21006KT 6SM HZ FEW110 22/19 A3007 RMK AO2 SLP167 T02220189
KJST 250954Z AUTO 23006KT 8SM OVC110 22/19 A3007 RMK AO2 SLP162 T02170189
KJST 250854Z AUTO 24006KT 9SM OVC100 21/18 A3007 RMK AO2 SLP161 T02110183 51002
KJST 250754Z AUTO 20006KT 10SM BKN100 22/18 A3006 RMK AO2 SLP159 T02170183
KJST 250654Z AUTO 23007KT 10SM SCT080 21/18 A3007 RMK AO2 SLP161 T02060178
KJST 250554Z AUTO 22007KT 10SM SCT080 21/18 A3006 RMK AO2 SLP160 60000 T02110183 10222 20206 58010
KJST 250454Z AUTO 21006KT 10SM OVC075 22/19 A3008 RMK AO2 SLP165 T02170189 403170189
KJST 250354Z AUTO 21006KT 10SM CLR 22/18 A3009 RMK AO2 SLP170 T02170183
KJST 250254Z AUTO 19005KT 10SM CLR 21/18 A3009 RMK AO2 SLP172 60000 T02110183 53003
KJST 250154Z AUTO 26005KT 10SM SCT120 21/18 A3009 RMK AO2 SLP172 T02110183
KJST 250054Z AUTO 28003KT 10SM FEW047 SCT110 22/19 A3009 RMK AO2 RAB32E44 SLP172 P0000 T02170189
KJST 242354Z AUTO 26003KT 10SM FEW090 SCT110 22/19 A3008 RMK AO2 RAE16 SLP172 P0001 60013 T02220189 10317 20211 50007
KJST 242254Z AUTO 35006KT 5SM -RA BR SCT090 OVC110 21/19 A3009 RMK AO2 PK WND 32030/2203 LTG DSNT E RAB02 TSB10E49 SLP177 P0012 T02110189
KJST 242239Z AUTO 34008KT 3SM TSRA SCT008 BKN085 OVC110 22/19 A3009 RMK AO2 PK WND 32030/2203 LTG DSNT ALQDS RAB02 TSB10 P0010 T02170189
KJST 242223Z AUTO 34013G24KT 3SM +TSRA SCT008 BKN015 OVC095 22/19 A3010 RMK AO2 PK WND 32030/2203 LTG DSNT ALQDS RAB02 TSB10 P0007 T02170189
KJST 242212Z AUTO 31019G30KT 8SM TSRA SCT015 BKN022 BKN045 23/19 A3011 RMK AO2 PK WND 32030/2203 LTG DSNT W-NE RAB02 TSB10 P0002 T02280189
KJST 242205Z AUTO 31021G30KT 10SM VCTS -RA FEW019 SCT048 BKN120 26/18 A3011 RMK AO2 PK WND 32030/2203 LTG DSNT W-N RAB02 PRESRR P0000 T02560183
KJST 242154Z AUTO 27006KT 10SM SCT120 28/18 A3008 RMK AO2 LTG DSNT W-N SLP166 T02830183
KJST 242054Z AUTO 26009KT 10SM CLR 29/17 A3006 RMK AO2 SLP162 T02940172 55005
KJST 241954Z AUTO 23008G16KT 10SM FEW050 31/16 A3005 RMK AO2 SLP156 T03110161
KJST 241854Z AUTO 25011G16KT 10SM SCT043 SCT050 31/18 A3007 RMK AO2 SLP160 T03110178
KJST 241754Z AUTO 26008KT 10SM SCT040 30/18 A3008 RMK AO2 SLP163 T03000178 10300 20217 58007
KJST 241654Z AUTO 29009KT 10SM SCT036 29/19 A3010 RMK AO2 SLP172 T02940189
KJST 241554Z AUTO VRB06KT 10SM BKN050 28/18 A3011 RMK AO2 SLP176 T02830183
KJST 241454Z AUTO 22006KT 10SM CLR 27/16 A3010 RMK AO2 SLP174 T02720156 58001
KJST 241354Z AUTO 24005KT 10SM CLR 24/18 A3010 RMK AO2 SLP176 T02440178
KJST 241254Z AUTO 18003KT 10SM SCT050 23/18 A3010 RMK AO2 SLP175 T02330178
KJST 241154Z AUTO 00000KT 8SM SCT050 22/18 A3010 RMK AO2 SLP176 70016 T02170183 10233 20194 51007
KJST 241119Z AUTO 13003KT 4SM BR FEW002 20/18 A3010 RMK AO2 T02000178
KJST 241106Z AUTO 13003KT 3SM BR CLR 19/18 A3010 RMK AO2 T01940178
KJST 241050Z AUTO 00000KT 1 3/4SM BR CLR 19/18 A3010 RMK AO2 SLP174 T01940178
KJST 241049Z AUTO 00000KT 1 3/4SM BR CLR 19/18 A3010 RMK AO2
KJST 240954Z AUTO 24006KT 5SM BR BKN050 19/17 A3010 RMK AO2 SLP176 T01940172
KJST 240854Z AUTO 00000KT 4SM BR CLR 19/18 A3008 RMK AO2 SLP170 T01940178 55002
KJST 240754Z AUTO 00000KT 10SM CLR 20/17 A3007 RMK AO2 SLP167 T02000167
KJST 240654Z AUTO 00000KT 10SM CLR 22/16 A3007 RMK AO2 SLP162 T02220161
KJST 240554Z AUTO 00000KT 10SM FEW060 23/18 A3009 RMK AO2 SLP168 T02280183 10272 20211 50004
KJST 240454Z AUTO 25004KT 10SM CLR 21/17 A3010 RMK AO2 SLP174 T02110172 403060211
KJST 240354Z AUTO 23003KT 10SM CLR 23/18 A3009 RMK AO2 SLP170 T02280183